createdAt,value
2019-05-11T00:00:05.432Z,2.40
2019-05-11T00:02:38.258Z,2.27
2019-05-11T00:05:09.520Z,2.00
2019-05-11T00:07:43.513Z,2.57
2019-05-11T00:10:14.002Z,2.57
2019-05-11T00:12:47.354Z,2.53
2019-05-11T00:15:18.696Z,3.07
2019-05-11T00:17:50.811Z,3.67
2019-05-11T00:20:22.040Z,3.60
2019-05-11T00:22:53.736Z,4.10
2019-05-11T00:25:25.279Z,3.20
2019-05-11T00:27:56.784Z,2.90
2019-05-11T00:30:28.133Z,3.10
2019-05-11T00:32:59.398Z,3.83
2019-05-11T00:35:31.018Z,3.67
2019-05-11T00:38:02.362Z,3.50
2019-05-11T00:40:33.699Z,3.20
2019-05-11T00:43:05.055Z,3.70
2019-05-11T00:45:36.640Z,3.10
2019-05-11T00:48:07.938Z,3.73
2019-05-11T00:50:40.782Z,2.97
2019-05-11T00:53:13.599Z,3.57
2019-05-11T00:55:44.996Z,3.07
2019-05-11T00:58:16.343Z,3.43
2019-05-11T01:00:47.788Z,3.40
2019-05-11T01:03:19.191Z,2.90
2019-05-11T01:05:50.973Z,2.47
2019-05-11T01:08:22.313Z,3.20
2019-05-11T01:10:54.065Z,2.30
2019-05-11T01:13:25.280Z,3.60
2019-05-11T01:15:58.397Z,3.40
2019-05-11T01:18:32.584Z,3.80
2019-05-11T01:21:04.209Z,3.40
2019-05-11T01:23:35.895Z,3.60
2019-05-11T01:26:07.268Z,2.97
2019-05-11T01:28:38.519Z,3.40
2019-05-11T01:31:09.901Z,4.20
2019-05-11T01:33:41.663Z,4.53
2019-05-11T01:36:13.436Z,4.30
2019-05-11T01:38:44.812Z,4.17
2019-05-11T01:41:16.238Z,3.80
2019-05-11T01:43:50.220Z,3.57
2019-05-11T01:46:21.967Z,3.70
2019-05-11T01:48:53.448Z,3.17
2019-05-11T01:51:24.675Z,3.57
2019-05-11T01:53:55.917Z,2.53
2019-05-11T01:56:27.266Z,3.13
2019-05-11T01:58:58.854Z,2.80
2019-05-11T02:01:30.929Z,2.60
2019-05-11T02:04:02.885Z,2.43
2019-05-11T02:06:34.150Z,4.43
2019-05-11T02:09:06.816Z,3.57
2019-05-11T02:11:38.090Z,4.67
2019-05-11T02:14:09.892Z,4.10
2019-05-11T02:16:41.177Z,3.93
2019-05-11T02:19:12.843Z,3.63
2019-05-11T02:21:44.552Z,4.20
2019-05-11T02:24:16.392Z,3.93
2019-05-11T02:26:47.806Z,3.57
2019-05-11T02:29:19.039Z,3.87
2019-05-11T02:31:50.260Z,3.60
2019-05-11T02:34:21.569Z,3.60
2019-05-11T02:36:53.317Z,4.33
2019-05-11T02:39:24.809Z,3.40
2019-05-11T02:41:56.070Z,2.63
2019-05-11T02:44:27.493Z,2.70
2019-05-11T02:46:59.042Z,2.50
2019-05-11T02:49:30.237Z,2.23
2019-05-11T02:52:01.871Z,3.77
2019-05-11T02:54:33.221Z,3.60
2019-05-11T02:57:04.439Z,5.70
2019-05-11T02:59:35.945Z,5.60
2019-05-11T03:02:07.180Z,5.00
2019-05-11T03:04:38.630Z,4.27
2019-05-11T03:07:10.046Z,4.03
2019-05-11T03:09:42.448Z,3.60
2019-05-11T03:12:13.763Z,3.70
2019-05-11T03:14:45.592Z,4.23
2019-05-11T03:17:20.758Z,3.43
2019-05-11T03:19:51.971Z,3.10
2019-05-11T03:22:23.190Z,3.87
2019-05-11T03:24:56.041Z,4.20
2019-05-11T03:27:27.497Z,4.40
2019-05-11T03:30:01.034Z,4.27
2019-05-11T03:32:32.616Z,4.03
2019-05-11T03:35:04.021Z,2.83
2019-05-11T03:37:35.366Z,2.37
2019-05-11T03:40:06.942Z,3.07
2019-05-11T03:42:38.364Z,2.83
2019-05-11T03:45:09.918Z,2.40
2019-05-11T03:47:43.974Z,3.30
2019-05-11T03:50:14.833Z,3.33
2019-05-11T03:52:46.054Z,3.60
2019-05-11T03:55:17.398Z,3.07
2019-05-11T03:57:48.763Z,3.30
2019-05-11T04:00:20.153Z,3.90
2019-05-11T04:02:52.967Z,3.50
2019-05-11T04:05:24.257Z,3.20
2019-05-11T04:07:55.805Z,3.90
2019-05-11T04:10:27.281Z,3.70
2019-05-11T04:12:58.603Z,3.60
2019-05-11T04:15:30.810Z,3.10
2019-05-11T04:18:02.085Z,3.80
2019-05-11T04:20:33.577Z,4.00
2019-05-11T04:23:04.807Z,3.80
2019-05-11T04:25:36.147Z,3.80
2019-05-11T04:28:09.579Z,4.27
2019-05-11T04:30:41.111Z,4.00
2019-05-11T04:33:12.357Z,5.03
2019-05-11T04:35:43.878Z,4.80
2019-05-11T04:38:15.108Z,5.67
2019-05-11T04:40:46.456Z,5.40
2019-05-11T04:43:17.846Z,4.40
2019-05-11T04:45:49.472Z,3.90
2019-05-11T04:48:20.785Z,4.50
2019-05-11T04:50:53.610Z,4.80
2019-05-11T04:53:24.828Z,3.77
2019-05-11T04:55:58.275Z,4.20
2019-05-11T04:58:32.046Z,3.93
2019-05-11T05:01:03.293Z,3.83
2019-05-11T05:03:40.982Z,3.90
2019-05-11T05:06:22.122Z,4.27
2019-05-11T05:08:40.913Z,3.90
2019-05-11T05:11:12.343Z,4.20
2019-05-11T05:13:43.611Z,4.50
2019-05-11T05:16:16.565Z,3.97
2019-05-11T05:18:47.878Z,3.57
2019-05-11T05:21:19.476Z,3.83
2019-05-11T05:23:50.962Z,4.90
2019-05-11T05:26:22.176Z,3.80
2019-05-11T05:28:53.803Z,3.70
2019-05-11T05:31:24.985Z,4.40
2019-05-11T05:33:56.444Z,3.93
2019-05-11T05:36:27.792Z,3.50
2019-05-11T05:38:59.036Z,3.23
2019-05-11T05:41:30.512Z,3.60
2019-05-11T05:44:03.318Z,4.23
2019-05-11T05:46:35.102Z,3.33
2019-05-11T05:49:06.340Z,3.30
2019-05-11T05:51:37.773Z,3.40
2019-05-11T05:54:09.323Z,2.87
2019-05-11T05:56:41.341Z,2.57
2019-05-11T05:59:12.589Z,2.37
2019-05-11T06:01:43.805Z,1.77
2019-05-11T06:04:15.271Z,2.10
2019-05-11T06:06:46.807Z,2.37
2019-05-11T06:09:18.303Z,2.00
2019-05-11T06:11:49.639Z,2.33
2019-05-11T06:14:20.933Z,2.80
2019-05-11T06:16:52.788Z,2.37
2019-05-11T06:19:24.845Z,2.90
2019-05-11T06:21:56.092Z,2.30
2019-05-11T06:24:27.690Z,2.60
2019-05-11T06:26:59.226Z,2.13
2019-05-11T06:29:30.780Z,2.40
2019-05-11T06:32:02.295Z,2.50
2019-05-11T06:34:34.132Z,2.33
2019-05-11T06:37:05.588Z,2.17
2019-05-11T06:39:36.848Z,2.60
2019-05-11T06:42:08.148Z,2.53
2019-05-11T06:44:39.921Z,2.60
2019-05-11T06:47:11.176Z,2.60
2019-05-11T06:49:42.868Z,2.63
2019-05-11T06:52:14.832Z,2.53
2019-05-11T06:54:46.163Z,3.00
2019-05-11T06:57:17.453Z,3.13
2019-05-11T06:59:48.676Z,2.90
2019-05-11T07:02:19.904Z,2.77
2019-05-11T07:04:52.963Z,1.77
2019-05-11T07:07:24.318Z,1.60
2019-05-11T07:09:55.814Z,1.53
2019-05-11T07:12:27.890Z,1.60
2019-05-11T07:14:59.664Z,1.70
2019-05-11T07:17:31.077Z,2.20
2019-05-11T07:20:02.391Z,1.73
2019-05-11T07:22:34.082Z,1.83
2019-05-11T07:25:05.750Z,1.80
2019-05-11T07:27:37.237Z,1.43
2019-05-11T07:30:08.981Z,1.20
2019-05-11T07:32:40.257Z,1.47
2019-05-11T07:35:12.232Z,1.30
2019-05-11T07:37:43.954Z,1.33
2019-05-11T07:40:15.494Z,1.13
2019-05-11T07:42:48.540Z,1.10
2019-05-11T07:45:20.238Z,1.30
2019-05-11T07:47:51.961Z,1.17
2019-05-11T07:50:23.323Z,1.20
2019-05-11T07:52:54.971Z,1.37
2019-05-11T07:55:28.205Z,1.40
2019-05-11T07:57:59.202Z,1.30
2019-05-11T08:00:30.787Z,1.70
2019-05-11T08:03:02.017Z,1.30
2019-05-11T08:05:33.544Z,0.93
2019-05-11T08:08:05.033Z,1.50
2019-05-11T08:10:39.004Z,0.90
2019-05-11T08:13:10.774Z,1.00
2019-05-11T08:15:42.031Z,1.17
2019-05-11T08:18:13.394Z,1.80
2019-05-11T08:20:45.008Z,1.23
2019-05-11T08:23:18.020Z,1.83
2019-05-11T08:25:49.623Z,1.67
2019-05-11T08:28:21.530Z,1.53
2019-05-11T08:30:52.746Z,1.23
2019-05-11T08:33:29.347Z,1.53
2019-05-11T08:36:18.495Z,0.90
2019-05-11T08:38:50.194Z,1.10
2019-05-11T08:41:21.494Z,1.13
2019-05-11T08:47:23.394Z,0.70
2019-05-11T08:49:54.646Z,1.30
2019-05-11T08:52:28.059Z,0.80
2019-05-11T08:55:02.062Z,1.43
2019-05-11T08:57:33.322Z,1.60
2019-05-11T09:00:04.770Z,1.50
2019-05-11T09:02:38.186Z,1.63
2019-05-11T09:05:09.273Z,1.10
2019-05-11T09:07:40.477Z,1.30
2019-05-11T09:10:11.877Z,1.47
2019-05-11T09:12:43.327Z,1.23
2019-05-11T09:15:31.589Z,1.30
2019-05-11T09:17:48.859Z,1.30
2019-05-11T09:20:22.229Z,1.17
2019-05-11T09:22:53.486Z,1.30
2019-05-11T09:25:30.304Z,2.00
2019-05-11T09:28:01.997Z,1.23
2019-05-11T09:30:44.872Z,2.77
2019-05-11T09:33:18.514Z,1.50
2019-05-11T09:35:53.081Z,4.00
2019-05-11T09:38:22.019Z,4.10
2019-05-11T09:40:53.856Z,2.40
2019-05-11T09:43:25.216Z,2.07
2019-05-11T09:49:12.730Z,1.70
2019-05-11T09:51:44.749Z,1.40
2019-05-11T09:54:18.284Z,1.13
2019-05-11T09:56:51.528Z,1.00
2019-05-11T09:59:22.906Z,1.23
2019-05-11T10:01:54.508Z,1.30
2019-05-11T10:04:25.728Z,1.23
2019-05-11T10:06:58.511Z,1.63
2019-05-11T10:09:31.258Z,2.33
2019-05-11T10:12:02.733Z,1.20
2019-05-11T10:14:34.745Z,1.23
2019-05-11T10:17:07.983Z,1.50
2019-05-11T10:19:39.657Z,1.07
2019-05-11T10:22:10.964Z,1.10
2019-05-11T10:24:44.359Z,0.83
2019-05-11T10:27:15.785Z,1.00
2019-05-11T10:29:48.368Z,1.00
2019-05-11T10:32:20.238Z,1.37
2019-05-11T10:34:51.693Z,0.83
2019-05-11T10:37:23.090Z,0.73
2019-05-11T10:39:54.320Z,1.73
2019-05-11T10:42:25.560Z,1.40
2019-05-11T10:44:58.312Z,0.90
2019-05-11T10:47:30.492Z,1.23
2019-05-11T10:50:02.304Z,0.80
2019-05-11T10:52:33.613Z,1.17
2019-05-11T10:55:04.846Z,0.77
2019-05-11T10:57:38.694Z,0.70
2019-05-11T11:00:11.300Z,0.90
2019-05-11T11:02:42.834Z,0.80
2019-05-11T11:05:14.583Z,1.10
2019-05-11T11:07:48.378Z,0.80
2019-05-11T11:10:19.963Z,0.80
2019-05-11T11:12:51.163Z,0.80
2019-05-11T11:15:23.205Z,0.67
2019-05-11T11:17:54.529Z,0.60
2019-05-11T11:20:28.041Z,0.70
2019-05-11T11:22:59.136Z,0.60
2019-05-11T11:25:30.895Z,0.60
2019-05-11T11:28:02.495Z,0.60
2019-05-11T11:30:34.321Z,0.90
2019-05-11T11:33:07.814Z,0.70
2019-05-11T11:35:39.426Z,0.70
2019-05-11T11:38:10.826Z,0.80
2019-05-11T11:40:42.900Z,0.70
2019-05-11T11:43:14.504Z,0.70
2019-05-11T11:45:48.281Z,0.67
2019-05-11T11:48:19.128Z,0.90
2019-05-11T11:50:50.477Z,0.80
2019-05-11T11:53:21.890Z,0.60
2019-05-11T11:55:53.372Z,0.70
2019-05-11T11:58:24.603Z,0.77
2019-05-11T12:00:55.867Z,0.70
2019-05-11T12:03:27.799Z,0.80
2019-05-11T12:05:59.497Z,0.70
2019-05-11T12:08:32.694Z,0.60
2019-05-11T12:11:03.979Z,0.70
2019-05-11T12:13:35.272Z,0.67
2019-05-11T12:16:07.759Z,0.73
2019-05-11T12:18:41.936Z,0.70
2019-05-11T12:21:13.334Z,0.70
2019-05-11T12:23:44.546Z,0.70
2019-05-11T12:26:17.723Z,0.70
2019-05-11T12:28:49.270Z,0.90
2019-05-11T12:31:20.780Z,0.80
2019-05-11T12:33:52.235Z,0.77
2019-05-11T12:36:23.824Z,0.60
2019-05-11T12:38:55.119Z,0.60
2019-05-11T12:41:28.012Z,0.87
2019-05-11T12:43:59.961Z,0.97
2019-05-11T12:46:31.849Z,0.70
2019-05-11T12:49:03.297Z,0.90
2019-05-11T12:51:34.569Z,1.23
2019-05-11T12:54:08.083Z,1.47
2019-05-11T12:56:39.457Z,1.47
2019-05-11T12:59:10.850Z,1.20
2019-05-11T13:01:42.128Z,1.00
2019-05-11T13:04:13.409Z,1.10
2019-05-11T13:06:47.985Z,1.10
2019-05-11T13:09:19.379Z,1.07
2019-05-11T13:11:51.464Z,1.80
2019-05-11T13:14:22.701Z,1.33
2019-05-11T13:16:54.126Z,1.20
2019-05-11T13:19:27.983Z,1.20
2019-05-11T13:21:59.101Z,1.10
2019-05-11T13:24:30.558Z,1.17
2019-05-11T13:27:02.349Z,1.97
2019-05-11T13:29:33.562Z,1.10
2019-05-11T13:32:05.290Z,0.90
2019-05-11T13:34:38.716Z,1.20
2019-05-11T13:37:09.985Z,1.20
2019-05-11T13:39:42.208Z,1.10
2019-05-11T13:42:13.865Z,0.93
2019-05-11T13:44:47.709Z,1.10
2019-05-11T13:47:18.425Z,1.30
2019-05-11T13:49:50.017Z,1.40
2019-05-11T13:52:21.916Z,1.23
2019-05-11T13:54:53.612Z,1.10
2019-05-11T13:57:25.142Z,0.90
2019-05-11T13:59:57.953Z,1.13
2019-05-11T14:02:30.708Z,1.37
2019-05-11T14:05:02.055Z,1.10
2019-05-11T14:07:33.681Z,0.90
2019-05-11T14:10:07.869Z,1.27
2019-05-11T14:12:38.810Z,1.00
2019-05-11T14:15:10.569Z,0.80
2019-05-11T14:17:42.081Z,1.30
2019-05-11T14:20:14.169Z,0.90
2019-05-11T14:22:47.803Z,0.90
2019-05-11T14:25:18.985Z,1.00
2019-05-11T14:27:50.234Z,0.70
2019-05-11T14:30:21.757Z,0.80
2019-05-11T14:32:53.098Z,0.87
2019-05-11T14:35:24.383Z,0.70
2019-05-11T14:37:55.607Z,0.80
2019-05-11T14:43:33.360Z,0.80
2019-05-11T14:49:41.576Z,0.93
2019-05-11T14:52:13.040Z,1.17
2019-05-11T14:54:44.806Z,0.80
2019-05-11T14:57:18.560Z,0.77
2019-05-11T14:59:49.761Z,1.10
2019-05-11T15:02:38.853Z,0.87
2019-05-11T15:05:10.482Z,0.90
2019-05-11T15:07:41.715Z,0.80
2019-05-11T15:10:13.204Z,0.87
2019-05-11T15:12:44.678Z,0.80
2019-05-11T15:15:18.696Z,0.80
2019-05-11T15:17:50.310Z,1.00
2019-05-11T15:20:21.797Z,1.10
2019-05-11T15:22:53.028Z,1.27
2019-05-11T15:25:24.280Z,1.20
2019-05-11T15:27:58.471Z,3.60
2019-05-11T15:30:32.654Z,2.10
2019-05-11T15:33:07.750Z,1.20
2019-05-11T15:35:42.760Z,1.00
2019-05-11T15:38:17.898Z,1.00
2019-05-11T15:40:51.062Z,1.10
2019-05-11T15:43:23.091Z,1.43
2019-05-11T15:45:57.894Z,1.47
2019-05-11T15:48:34.110Z,0.97
2019-05-11T15:51:09.334Z,1.50
2019-05-11T15:53:43.845Z,1.30
2019-05-11T15:56:19.097Z,1.37
2019-05-11T15:58:53.829Z,1.20
2019-05-11T16:01:28.874Z,1.07
2019-05-11T16:04:03.265Z,1.23
2019-05-11T16:06:35.897Z,2.00
2019-05-11T16:09:10.330Z,1.43
2019-05-11T16:11:47.733Z,1.10
2019-05-11T16:14:19.588Z,1.10
2019-05-11T16:16:53.035Z,1.33
2019-05-11T16:19:25.148Z,4.10
2019-05-11T16:21:59.548Z,41.13
2019-05-11T16:24:32.714Z,34.10
2019-05-11T16:27:05.064Z,32.17
2019-05-11T16:29:38.540Z,27.90
2019-05-11T16:32:11.254Z,23.67
2019-05-11T16:34:44.073Z,7.10
2019-05-11T16:37:18.403Z,2.60
2019-05-11T16:39:51.613Z,2.13
2019-05-11T16:42:23.785Z,2.27
2019-05-11T16:44:57.806Z,2.03
2019-05-11T16:47:29.398Z,1.87
2019-05-11T16:50:02.749Z,7.17
2019-05-11T16:52:35.377Z,2.27
2019-05-11T16:55:07.993Z,4.30
2019-05-11T16:57:42.980Z,7.63
2019-05-11T17:00:14.580Z,2.57
2019-05-11T17:02:49.093Z,2.93
2019-05-11T17:05:27.052Z,6.57
2019-05-11T17:07:58.738Z,4.90
2019-05-11T17:10:32.444Z,3.77
2019-05-11T17:13:08.640Z,1.63
2019-05-11T17:15:41.639Z,2.00
2019-05-11T17:18:15.161Z,1.37
2019-05-11T17:20:47.616Z,1.30
2019-05-11T17:23:23.320Z,1.13
2019-05-11T17:25:57.960Z,1.27
2019-05-11T17:28:30.680Z,1.20
2019-05-11T17:31:03.463Z,1.10
2019-05-11T17:33:35.593Z,1.47
2019-05-11T17:36:10.186Z,1.60
2019-05-11T17:38:43.161Z,1.10
2019-05-11T17:41:15.480Z,1.40
2019-05-11T17:43:48.055Z,1.00
2019-05-11T17:46:19.438Z,1.30
2019-05-11T17:48:52.778Z,1.10
2019-05-11T17:51:28.577Z,1.20
2019-05-11T17:54:02.833Z,1.13
2019-05-11T17:56:42.063Z,1.07
2019-05-11T17:59:23.612Z,1.40
2019-05-11T18:01:57.971Z,1.57
2019-05-11T18:04:30.691Z,1.20
2019-05-11T18:07:04.957Z,1.10
2019-05-11T18:09:39.261Z,1.83
2019-05-11T18:12:10.872Z,1.33
2019-05-11T18:14:43.629Z,1.00
2019-05-11T18:17:18.064Z,0.90
2019-05-11T18:19:53.330Z,0.80
2019-05-11T18:22:25.346Z,1.50
2019-05-11T18:24:58.643Z,1.10
2019-05-11T18:27:32.217Z,1.00
2019-05-11T18:30:08.618Z,1.20
2019-05-11T18:32:41.114Z,1.00
2019-05-11T18:35:12.988Z,0.93
2019-05-11T18:37:47.747Z,1.00
2019-05-11T18:40:20.853Z,0.70
2019-05-11T18:42:52.950Z,1.00
2019-05-11T18:45:28.579Z,1.03
2019-05-11T18:48:03.169Z,1.00
2019-05-11T18:50:34.850Z,1.10
2019-05-11T18:53:09.423Z,1.10
2019-05-11T18:55:43.546Z,1.10
2019-05-11T18:58:18.398Z,1.00
2019-05-11T19:00:49.699Z,1.20
2019-05-11T19:03:23.028Z,1.27
2019-05-11T19:05:57.625Z,1.53
2019-05-11T19:08:32.077Z,1.80
2019-05-11T19:11:11.785Z,1.30
2019-05-11T19:13:43.839Z,0.83
2019-05-11T19:16:18.742Z,0.80
2019-05-11T19:18:52.935Z,0.70
2019-05-11T19:21:25.433Z,0.80
2019-05-11T19:23:58.847Z,0.83
2019-05-11T19:26:30.311Z,0.90
2019-05-11T19:29:02.104Z,0.70
2019-05-11T19:31:38.435Z,1.53
2019-05-11T19:34:11.132Z,2.10
2019-05-11T19:36:44.129Z,1.37
2019-05-11T19:39:19.183Z,2.60
2019-05-11T19:41:50.593Z,2.30
2019-05-11T19:44:23.200Z,5.57
2019-05-11T19:46:58.123Z,4.40
2019-05-11T19:49:31.017Z,5.30
2019-05-11T19:52:05.417Z,11.53
2019-05-11T19:54:38.413Z,8.00
2019-05-11T19:57:09.747Z,6.00
2019-05-11T19:59:42.350Z,3.40
2019-05-11T20:02:17.873Z,2.33
2019-05-11T20:04:51.723Z,1.40
2019-05-11T20:07:23.611Z,1.10
2019-05-11T20:10:03.008Z,0.90
2019-05-11T20:12:38.192Z,0.87
2019-05-11T20:15:10.393Z,0.90
2019-05-11T20:17:43.549Z,1.30
2019-05-11T20:20:18.882Z,1.57
2019-05-11T20:22:52.705Z,1.43
2019-05-11T20:25:24.190Z,1.03
2019-05-11T20:27:55.429Z,0.97
2019-05-11T20:30:26.623Z,0.90
2019-05-11T20:32:59.491Z,0.97
2019-05-11T20:35:32.681Z,0.80
2019-05-11T20:38:08.470Z,0.90
2019-05-11T20:40:40.386Z,1.40
2019-05-11T20:43:12.703Z,1.30
2019-05-11T20:45:44.365Z,1.00
2019-05-11T20:48:19.291Z,0.83
2019-05-11T20:50:51.441Z,1.10
2019-05-11T20:53:28.665Z,0.93
2019-05-11T20:56:01.894Z,1.30
2019-05-11T20:58:53.485Z,2.47
2019-05-11T21:01:33.191Z,3.87
2019-05-11T21:04:08.497Z,2.57
2019-05-11T21:06:43.215Z,1.80
2019-05-11T21:09:18.460Z,1.23
2019-05-11T21:11:58.879Z,1.10
2019-05-11T21:14:34.263Z,0.90
2019-05-11T21:17:08.889Z,0.80
2019-05-11T21:19:42.680Z,1.00
2019-05-11T21:22:13.698Z,1.00
2019-05-11T21:24:49.584Z,1.80
2019-05-11T21:27:25.276Z,1.47
2019-05-11T21:29:59.164Z,1.77
2019-05-11T21:32:31.835Z,1.37
2019-05-11T21:35:12.309Z,1.30
2019-05-11T21:37:49.844Z,1.53
2019-05-11T21:40:31.370Z,1.33
2019-05-11T21:43:03.654Z,1.30
2019-05-11T21:45:40.522Z,1.23
2019-05-11T21:48:15.268Z,1.20
2019-05-11T21:50:53.009Z,1.10
2019-05-11T21:53:35.405Z,1.20
2019-05-11T21:56:19.974Z,1.50
2019-05-11T21:58:55.772Z,1.33
2019-05-11T22:01:31.733Z,1.17
2019-05-11T22:04:02.960Z,1.23
2019-05-11T22:06:38.992Z,1.20
2019-05-11T22:09:19.079Z,1.53
2019-05-11T22:12:01.467Z,0.80
2019-05-11T22:14:34.634Z,1.20
2019-05-11T22:17:07.705Z,1.40
2019-05-11T22:19:40.778Z,1.23
2019-05-11T22:22:24.944Z,0.90
2019-05-11T22:24:52.614Z,1.70
2019-05-11T22:27:27.823Z,1.47
2019-05-11T22:30:00.342Z,2.00
2019-05-11T22:32:32.904Z,1.67
2019-05-11T22:35:08.581Z,1.57
2019-05-11T22:37:39.804Z,1.40
2019-05-11T22:40:12.424Z,1.43
2019-05-11T22:42:45.039Z,1.40
2019-05-11T22:45:18.740Z,1.67
2019-05-11T22:47:51.922Z,1.50
2019-05-11T22:50:25.056Z,1.67
2019-05-11T22:52:57.747Z,2.27
2019-05-11T22:55:29.818Z,1.63
2019-05-11T22:58:03.130Z,1.60
2019-05-11T23:00:41.359Z,1.53
2019-05-11T23:03:18.900Z,1.70
2019-05-11T23:05:51.605Z,1.53
2019-05-11T23:08:23.214Z,1.93
2019-05-11T23:10:58.105Z,2.00
2019-05-11T23:13:32.625Z,2.17
2019-05-11T23:16:04.155Z,2.10
2019-05-11T23:18:38.957Z,1.73
2019-05-11T23:21:12.135Z,1.70
2019-05-11T23:23:44.107Z,1.60
2019-05-11T23:26:17.893Z,1.37
2019-05-11T23:28:49.480Z,1.60
2019-05-11T23:31:24.255Z,1.20
2019-05-11T23:33:59.180Z,1.47
2019-05-11T23:36:34.649Z,1.67
2019-05-11T23:39:09.184Z,1.43
2019-05-11T23:41:40.799Z,1.67
2019-05-11T23:44:14.283Z,1.73
2019-05-11T23:46:47.929Z,1.73
2019-05-11T23:49:21.284Z,1.30
2019-05-11T23:51:54.090Z,1.40
2019-05-11T23:54:28.483Z,2.03
2019-05-11T23:57:00.055Z,1.80
2019-05-11T23:59:32.442Z,1.80
